Monday, September 22, 2014
16:19 UTC
  |  Log In   |  Register Free
Airport Search:

Vidalia Regional Airport
(KVDI)

Vidalia Regional Airport Diagram
No Airport Diagram Available

FAA data valid effective September 18, 2014 - November 13, 2014 (unless otherwise noted).

 
 
 
 
 
 
 
 
 
 
 
 
 
 

Current Aviation Weather for Vidalia Regional Airport (KVDI)

The most recent METAR observation for KVDI was updated at: 1618
METAR Summary (Translated METAR)
KVDI
221555Z AUTO 28004KT 7SM OVC060 28/20 A3002 RMK AO2 LTG DSNT W
KAZE
221555Z AUTO 00000KT 10SM CLR 30/20 A3002 RMK AO2 LTG DSNT SW T02980200
(23.2 nm SW from KVDI)
KSBO
221555Z AUTO 00000KT 10SM SCT065 BKN080 28/22 A3003 RMK AO2 LTG DSNT W
(25 nm NE from KVDI)
TAF
No TAF information found within 50 nm of KVDI
  Airport Weather Conditions for KVDI

 Current Weather at VDI
81° F
Fair
North winds at 0.0 mph
VDI NOAA Radar

Pressure: 30.03 in
Humidity: 62%
Wind: Calm
Dew Point: 66.2°F
Visibility: 10.00 mi


Airport Weather Forecast for KVDI

Translated METAR and TAF for KVDI
Translated METAR for KVDI (1614 UTC 22 September 2014)
found at http://aviationweather.gov/adds/metars/
 
METAR text: KVDI 221555Z AUTO 28004KT 7SM OVC060 28/20 A3002 RMK AO2 LTG DSNT W
Conditions at: KVDI (VIDALIA MUNI , GA, US) observed 1555 UTC 22 September 2014
Temperature: 28.0°C (82°F)
Dewpoint: 20.0°C (68°F) [RH = 62%]
Pressure (altimeter): 30.02 inches Hg (1016.7 mb)
Winds: from the W (280 degrees) at 5 MPH (4 knots; 2.1 m/s)
Visibility: 7 miles (11 km)
Ceiling: 6000 feet AGL
Clouds: overcast cloud deck at 6000 feet AGL
Weather: automated observation with no human augmentation;
there may or may not be significant weather present at this time
Translated TAF for KVDI

There is no translated TAF available for this airport

Find All Airport Services Find A Hotel Find A Rental Car Find A Golf Course Find A Restaurant $100 Hamburger



FBO's on the Field
FBO Company Facility Photos Services Transportation Aviation Fuel Prices: Prices include tax
Catering Weather Repair Courtesy Rental Type 100LL JetA JetA+ MOGAS 8087
 
Vidalia Regional Airport

This FBO has not yet been rated
FS:Phillips66
Last Updated: Sep-01
Login to update fuel prices
SS:
Contact Vidalia Regional AirportMore FBO Information
 
Add another FBO Facility Photos Catering Weather Repair Courtesy Rental Type 100LL JetA JetA+ MOGAS 8087
Services Transportation Aviation Fuel Prices: Prices include tax


model-print
model-print
model-print
model-print